createdAt,value
2022-09-14T00:01:45.748Z,0.50
2022-09-14T00:04:17.380Z,0.50
2022-09-14T00:06:48.343Z,0.60
2022-09-14T00:09:19.948Z,0.60
2022-09-14T00:11:50.523Z,0.63
2022-09-14T00:14:20.778Z,0.70
2022-09-14T00:16:52.368Z,0.70
2022-09-14T00:19:27.753Z,0.50
2022-09-14T00:22:02.061Z,0.50
2022-09-14T00:24:32.873Z,0.60
2022-09-14T00:27:04.537Z,0.68
2022-09-14T00:29:36.130Z,0.57
2022-09-14T00:32:06.748Z,0.55
2022-09-14T00:34:37.113Z,1.15
2022-09-14T00:37:07.498Z,0.40
2022-09-14T00:39:37.754Z,0.50
2022-09-14T00:42:09.502Z,0.68
2022-09-14T00:44:40.383Z,0.60
2022-09-14T00:47:10.487Z,0.50
2022-09-14T00:49:44.728Z,0.50
2022-09-14T00:52:19.560Z,0.60
2022-09-14T00:54:51.941Z,0.50
2022-09-14T00:57:23.524Z,0.50
2022-09-14T00:59:55.435Z,0.55
2022-09-14T01:02:28.242Z,0.60
2022-09-14T01:04:58.748Z,0.43
2022-09-14T01:07:28.737Z,0.50
2022-09-14T01:10:14.811Z,0.40
2022-09-14T01:13:04.072Z,0.50
2022-09-14T01:15:34.385Z,0.60
2022-09-14T01:18:16.261Z,0.40
2022-09-14T01:21:25.542Z,0.55
2022-09-14T01:24:01.635Z,0.70
2022-09-14T01:29:26.632Z,0.40
2022-09-14T01:32:05.668Z,0.50
2022-09-14T01:34:38.660Z,0.40
2022-09-14T01:37:31.265Z,0.38
2022-09-14T01:40:05.791Z,0.50
2022-09-14T01:42:36.826Z,0.40
2022-09-14T01:45:12.661Z,0.50
2022-09-14T01:47:43.686Z,0.40
2022-09-14T01:50:17.190Z,0.50
2022-09-14T01:52:55.405Z,0.50
2022-09-14T01:55:31.376Z,0.70
2022-09-14T01:58:27.697Z,0.47
2022-09-14T02:01:00.012Z,0.45
2022-09-14T02:03:33.082Z,0.50
2022-09-14T02:06:07.711Z,0.40
2022-09-14T02:08:37.786Z,0.50
2022-09-14T02:11:08.943Z,0.75
2022-09-14T02:13:38.949Z,0.50
2022-09-14T02:16:08.990Z,0.65
2022-09-14T02:18:42.240Z,0.50
2022-09-14T02:21:21.887Z,0.50
2022-09-14T02:23:52.291Z,0.52
2022-09-14T02:26:24.455Z,0.40
2022-09-14T02:28:58.242Z,0.40
2022-09-14T02:31:34.660Z,0.50
2022-09-14T02:34:08.554Z,0.50
2022-09-14T02:37:07.979Z,0.30
2022-09-14T02:39:48.060Z,0.45
2022-09-14T02:42:27.016Z,0.57
2022-09-14T02:45:06.390Z,0.40
2022-09-14T02:47:53.061Z,0.40
2022-09-14T02:50:31.989Z,0.40
2022-09-14T02:53:04.840Z,0.45
2022-09-14T02:55:38.511Z,0.43
2022-09-14T02:58:10.117Z,0.50
2022-09-14T03:00:42.977Z,0.50
2022-09-14T03:03:13.506Z,0.50
2022-09-14T03:05:43.413Z,0.40
2022-09-14T03:08:13.897Z,0.43
2022-09-14T03:10:45.717Z,0.68
2022-09-14T03:13:16.771Z,0.30
2022-09-14T03:15:46.970Z,0.70
2022-09-14T03:18:16.995Z,1.17
2022-09-14T03:20:46.877Z,0.30
2022-09-14T03:23:17.819Z,0.50
2022-09-14T03:25:48.884Z,0.40
2022-09-14T03:28:18.971Z,0.50
2022-09-14T03:30:50.551Z,0.40
2022-09-14T08:57:23.963Z,1.65
2022-09-14T08:59:56.722Z,1.27
2022-09-14T09:02:41.423Z,1.20
2022-09-14T09:05:16.346Z,1.05
2022-09-14T09:07:55.693Z,0.90
2022-09-14T09:10:29.527Z,0.90
2022-09-14T09:13:04.800Z,1.10
2022-09-14T09:15:43.109Z,1.00
2022-09-14T09:18:20.745Z,0.75
2022-09-14T09:21:03.406Z,0.77
2022-09-14T09:23:36.152Z,1.58
2022-09-14T09:26:14.227Z,2.40
2022-09-14T09:28:53.294Z,2.50
2022-09-14T09:31:28.526Z,2.20
2022-09-14T09:33:58.612Z,1.93
2022-09-14T09:36:30.741Z,2.28
2022-09-14T09:39:05.326Z,1.67
2022-09-14T09:41:48.240Z,1.70
2022-09-14T09:44:20.323Z,2.10
2022-09-14T09:47:04.797Z,2.10
2022-09-14T09:49:37.898Z,1.58
2022-09-14T09:52:16.391Z,1.33
2022-09-14T09:54:53.906Z,1.10
2022-09-14T13:38:27.062Z,1.00
2022-09-14T13:40:58.983Z,1.23
2022-09-14T13:43:29.565Z,1.10
2022-09-14T13:46:00.601Z,2.03
2022-09-14T13:48:30.617Z,1.42
2022-09-14T13:51:01.079Z,2.28
2022-09-14T13:53:45.840Z,1.50
2022-09-14T13:56:43.799Z,1.40
2022-09-14T13:59:14.104Z,1.27
2022-09-14T14:01:45.553Z,1.65
2022-09-14T14:04:29.353Z,1.55
2022-09-14T14:07:05.891Z,1.85
2022-09-14T14:09:48.526Z,1.83
2022-09-14T14:12:29.305Z,1.42
2022-09-14T14:15:02.735Z,1.65
2022-09-14T14:17:34.403Z,1.70
2022-09-14T14:20:25.270Z,1.20
2022-09-14T14:23:03.761Z,1.75
2022-09-14T14:25:36.552Z,2.13
2022-09-14T14:28:17.166Z,4.05
2022-09-14T14:30:48.275Z,4.95
2022-09-14T14:33:21.929Z,5.20
2022-09-14T14:35:57.019Z,6.55
2022-09-14T14:38:28.767Z,7.35
2022-09-14T14:40:59.699Z,7.43
2022-09-14T14:43:30.043Z,5.80
2022-09-14T14:46:03.970Z,3.42
2022-09-14T14:48:33.903Z,2.22
2022-09-14T14:51:04.223Z,1.85
2022-09-14T14:53:34.259Z,1.80
2022-09-14T14:56:04.260Z,1.42
2022-09-14T14:58:36.468Z,1.20
2022-09-14T15:01:06.495Z,1.00
2022-09-14T15:03:36.442Z,1.20
2022-09-14T15:06:26.141Z,1.52
2022-09-14T15:08:59.553Z,1.00
2022-09-14T15:11:29.479Z,0.85
2022-09-14T15:13:59.866Z,0.80
2022-09-14T15:16:30.086Z,0.93
2022-09-14T15:18:59.967Z,0.70
2022-09-14T15:21:29.839Z,1.05
2022-09-14T15:24:01.578Z,1.20
2022-09-14T15:26:32.540Z,1.00
2022-09-14T15:29:02.473Z,1.60
2022-09-14T15:31:32.750Z,1.05
2022-09-14T15:34:02.714Z,0.80
2022-09-14T15:36:41.512Z,1.10
2022-09-14T15:39:13.713Z,1.30
2022-09-14T15:41:44.634Z,1.00
2022-09-14T15:44:14.983Z,0.90
2022-09-14T15:46:46.128Z,1.05
2022-09-14T15:49:20.588Z,1.35
2022-09-14T15:51:52.604Z,1.40
2022-09-14T15:54:27.263Z,1.35
2022-09-14T15:57:00.873Z,1.83
2022-09-14T15:59:32.423Z,1.00
2022-09-14T16:02:04.831Z,1.00
2022-09-14T16:04:39.973Z,1.27
2022-09-14T16:07:14.152Z,1.27
2022-09-14T16:09:44.825Z,1.40
2022-09-14T16:12:16.730Z,1.55
2022-09-14T16:14:47.710Z,1.10
2022-09-14T16:17:17.662Z,1.27
2022-09-14T16:19:47.526Z,1.27
2022-09-14T16:22:17.503Z,1.10
2022-09-14T16:24:47.560Z,1.20
2022-09-14T16:27:17.907Z,1.30
2022-09-14T16:29:47.841Z,1.20
2022-09-14T16:32:17.796Z,1.15
2022-09-14T16:34:47.679Z,1.85
2022-09-14T16:37:17.571Z,1.88
2022-09-14T16:39:49.617Z,1.85
2022-09-14T16:42:20.780Z,1.60
2022-09-14T16:44:51.207Z,1.90
2022-09-14T16:47:21.335Z,1.58
2022-09-14T16:49:51.482Z,1.50
2022-09-14T16:52:21.753Z,1.75
2022-09-14T16:54:55.874Z,1.55
2022-09-14T16:57:29.603Z,1.70
2022-09-14T17:00:00.056Z,1.67
2022-09-14T17:02:30.004Z,1.70
2022-09-14T17:05:00.184Z,1.77
2022-09-14T17:07:30.217Z,1.33
2022-09-14T17:10:01.417Z,1.65
2022-09-14T17:12:31.693Z,1.55
2022-09-14T17:15:02.227Z,1.60
2022-09-14T17:17:33.157Z,1.42
2022-09-14T17:20:03.298Z,1.30
2022-09-14T17:22:33.191Z,1.50
2022-09-14T17:25:03.468Z,1.48
2022-09-14T17:27:33.382Z,1.20
2022-09-14T17:30:03.682Z,1.52
2022-09-14T17:32:35.615Z,1.52
2022-09-14T17:35:06.724Z,1.40
2022-09-14T17:37:37.661Z,1.40
2022-09-14T17:40:09.035Z,1.65
2022-09-14T17:42:39.090Z,1.60
2022-09-14T17:45:09.334Z,1.65
2022-09-14T17:47:40.546Z,1.80
2022-09-14T17:50:11.084Z,1.95
2022-09-14T18:12:49.596Z,1.50
2022-09-14T18:15:20.726Z,1.60
2022-09-14T18:17:52.381Z,2.00
2022-09-14T18:20:22.289Z,1.80
2022-09-14T18:22:52.384Z,1.75
2022-09-14T18:25:22.657Z,2.08
2022-09-14T18:27:53.900Z,2.00
2022-09-14T18:30:24.992Z,2.08
2022-09-14T18:32:55.758Z,1.90
2022-09-14T18:35:25.753Z,1.77
2022-09-14T18:37:55.614Z,1.83
2022-09-14T18:40:25.833Z,1.75
2022-09-14T18:42:56.236Z,1.75
2022-09-14T18:45:26.079Z,1.70
2022-09-14T18:47:55.960Z,2.38
2022-09-14T18:50:26.325Z,1.70
2022-09-14T18:52:57.378Z,1.73
2022-09-14T18:55:28.455Z,2.10
2022-09-14T18:57:58.358Z,1.90
2022-09-14T19:00:29.430Z,1.70
2022-09-14T19:03:00.151Z,1.95
2022-09-14T19:05:34.204Z,1.77
2022-09-14T19:08:05.192Z,1.90
2022-09-14T19:10:35.039Z,1.90
2022-09-14T19:13:04.916Z,2.05
2022-09-14T19:15:35.252Z,2.65
2022-09-14T19:18:05.587Z,2.08
2022-09-14T19:21:02.096Z,2.33
2022-09-14T19:23:26.141Z,1.77
2022-09-14T19:25:56.039Z,1.83
2022-09-14T19:28:25.911Z,1.80
2022-09-14T19:30:56.265Z,2.10
2022-09-14T19:33:27.559Z,1.90
2022-09-14T19:35:58.479Z,2.00
2022-09-14T19:38:28.826Z,1.88
2022-09-14T19:40:58.733Z,2.03
2022-09-14T19:43:29.693Z,2.03
2022-09-14T19:46:04.618Z,2.35
2022-09-14T19:48:35.578Z,1.85
2022-09-14T19:51:08.151Z,2.10
2022-09-14T19:53:39.833Z,2.22
2022-09-14T19:56:11.076Z,1.80
2022-09-14T19:58:41.981Z,1.60
2022-09-14T20:01:13.671Z,1.98
2022-09-14T20:03:43.626Z,1.92
2022-09-14T20:06:20.763Z,1.90
2022-09-14T20:08:52.228Z,1.95
2022-09-14T20:11:23.530Z,2.15
2022-09-14T20:13:53.744Z,2.50
2022-09-14T20:16:29.915Z,2.20
2022-09-14T20:19:00.566Z,2.13
2022-09-14T20:21:31.069Z,2.00
2022-09-14T20:24:15.753Z,1.95
2022-09-14T20:55:18.144Z,2.05
2022-09-14T20:57:48.048Z,2.13
2022-09-14T21:00:19.526Z,2.40
2022-09-14T21:02:53.943Z,2.10
2022-09-14T21:05:25.085Z,2.15
2022-09-14T21:07:56.396Z,2.00
2022-09-14T21:10:29.329Z,2.40
2022-09-14T21:13:00.190Z,2.47
2022-09-14T21:15:30.463Z,2.80
2022-09-14T21:18:00.708Z,2.58
2022-09-14T21:20:31.195Z,2.20
2022-09-14T21:23:01.049Z,2.30
2022-09-14T21:25:30.988Z,2.53
2022-09-14T21:28:13.094Z,2.55
2022-09-14T21:30:42.968Z,2.58
2022-09-14T21:33:13.259Z,2.83
2022-09-14T21:35:43.127Z,3.15
2022-09-14T21:38:13.392Z,2.38
2022-09-14T21:40:47.009Z,3.13
2022-09-14T21:43:17.379Z,2.33
2022-09-14T21:45:48.192Z,3.00
2022-09-14T21:48:20.212Z,3.00
2022-09-14T21:50:50.101Z,3.10
2022-09-14T21:53:20.174Z,2.70
2022-09-14T21:55:50.636Z,2.30
2022-09-14T21:58:20.488Z,2.25
2022-09-14T22:00:50.817Z,1.90
2022-09-14T22:03:26.550Z,2.33
2022-09-14T22:06:01.825Z,2.20
2022-09-14T22:09:10.985Z,2.25
2022-09-14T22:11:27.896Z,2.83
2022-09-14T22:13:58.514Z,2.20
2022-09-14T22:16:30.342Z,2.95
2022-09-14T22:19:01.460Z,2.13
2022-09-14T22:21:31.851Z,2.30
2022-09-14T22:24:04.218Z,2.20
2022-09-14T22:26:35.999Z,2.50
2022-09-14T22:29:06.519Z,3.40
2022-09-14T22:31:36.424Z,3.00
2022-09-14T22:34:06.832Z,2.97
2022-09-14T22:36:38.428Z,3.67
2022-09-14T22:39:08.632Z,3.95
2022-09-14T22:41:38.961Z,3.50
2022-09-14T22:44:09.446Z,3.78
2022-09-14T22:46:40.871Z,4.07
2022-09-14T22:49:11.845Z,3.67
2022-09-14T22:51:42.055Z,3.83
2022-09-14T22:54:12.325Z,5.07
2022-09-14T22:56:43.013Z,4.88
2022-09-14T22:59:13.160Z,4.82
2022-09-14T23:01:43.784Z,4.85
2022-09-14T23:04:15.031Z,4.95
2022-09-14T23:06:50.381Z,4.90
